sensor_id;sensor_type;location;lat;lon;timestamp;P1;durP1;ratioP1;P2;durP2;ratioP2
33724;SDS011;20056;0.000;0.000;2023-10-08T00:01:48;3.08;;;2.20;;
33724;SDS011;20056;0.000;0.000;2023-10-08T00:04:16;3.50;;;2.20;;
33724;SDS011;20056;0.000;0.000;2023-10-08T00:06:44;3.15;;;2.40;;
33724;SDS011;20056;0.000;0.000;2023-10-08T00:09:10;2.65;;;1.98;;
33724;SDS011;20056;0.000;0.000;2023-10-08T00:11:36;3.60;;;2.40;;
33724;SDS011;20056;0.000;0.000;2023-10-08T00:14:03;4.38;;;2.20;;
33724;SDS011;20056;0.000;0.000;2023-10-08T00:16:33;3.38;;;2.30;;
33724;SDS011;20056;0.000;0.000;2023-10-08T00:18:59;4.20;;;2.03;;
33724;SDS011;20056;0.000;0.000;2023-10-08T00:21:32;3.03;;;1.88;;
33724;SDS011;20056;0.000;0.000;2023-10-08T00:24:00;2.70;;;1.98;;
33724;SDS011;20056;0.000;0.000;2023-10-08T00:26:30;3.55;;;2.15;;
33724;SDS011;20056;0.000;0.000;2023-10-08T00:28:56;3.45;;;2.17;;
33724;SDS011;20056;0.000;0.000;2023-10-08T00:31:24;5.68;;;2.72;;
33724;SDS011;20056;0.000;0.000;2023-10-08T00:33:55;4.05;;;2.35;;
33724;SDS011;20056;0.000;0.000;2023-10-08T00:36:21;4.25;;;2.42;;
33724;SDS011;20056;0.000;0.000;2023-10-08T00:38:49;4.63;;;2.30;;
33724;SDS011;20056;0.000;0.000;2023-10-08T00:41:18;6.85;;;2.88;;
33724;SDS011;20056;0.000;0.000;2023-10-08T00:43:47;3.88;;;2.20;;
33724;SDS011;20056;0.000;0.000;2023-10-08T00:46:13;5.75;;;2.35;;
33724;SDS011;20056;0.000;0.000;2023-10-08T00:48:50;3.03;;;2.30;;
33724;SDS011;20056;0.000;0.000;2023-10-08T00:51:19;3.60;;;2.00;;
33724;SDS011;20056;0.000;0.000;2023-10-08T00:53:46;4.90;;;2.53;;
33724;SDS011;20056;0.000;0.000;2023-10-08T00:56:14;3.97;;;2.28;;
33724;SDS011;20056;0.000;0.000;2023-10-08T00:58:44;3.92;;;2.20;;
33724;SDS011;20056;0.000;0.000;2023-10-08T01:01:14;4.47;;;1.90;;
33724;SDS011;20056;0.000;0.000;2023-10-08T01:03:41;3.88;;;2.33;;
33724;SDS011;20056;0.000;0.000;2023-10-08T01:06:10;5.80;;;1.92;;
33724;SDS011;20056;0.000;0.000;2023-10-08T01:08:37;2.95;;;1.95;;
33724;SDS011;20056;0.000;0.000;2023-10-08T01:14:21;4.18;;;1.88;;
33724;SDS011;20056;0.000;0.000;2023-10-08T01:16:56;3.70;;;2.25;;
33724;SDS011;20056;0.000;0.000;2023-10-08T01:19:23;3.45;;;2.05;;
33724;SDS011;20056;0.000;0.000;2023-10-08T01:21:51;3.58;;;2.10;;
33724;SDS011;20056;0.000;0.000;2023-10-08T01:24:17;2.78;;;1.95;;
33724;SDS011;20056;0.000;0.000;2023-10-08T01:26:44;2.55;;;1.98;;
33724;SDS011;20056;0.000;0.000;2023-10-08T01:29:11;3.22;;;2.05;;
33724;SDS011;20056;0.000;0.000;2023-10-08T01:31:47;3.35;;;2.03;;
33724;SDS011;20056;0.000;0.000;2023-10-08T01:34:18;3.05;;;2.10;;
33724;SDS011;20056;0.000;0.000;2023-10-08T01:36:48;5.40;;;2.28;;
33724;SDS011;20056;0.000;0.000;2023-10-08T01:39:14;3.53;;;2.00;;
33724;SDS011;20056;0.000;0.000;2023-10-08T01:41:44;4.32;;;2.20;;
33724;SDS011;20056;0.000;0.000;2023-10-08T01:44:10;3.40;;;1.90;;
33724;SDS011;20056;0.000;0.000;2023-10-08T01:46:36;2.88;;;1.95;;
33724;SDS011;20056;0.000;0.000;2023-10-08T01:49:03;3.17;;;2.00;;
33724;SDS011;20056;0.000;0.000;2023-10-08T01:51:33;3.95;;;2.05;;
33724;SDS011;20056;0.000;0.000;2023-10-08T01:54:11;3.50;;;2.10;;
33724;SDS011;20056;0.000;0.000;2023-10-08T01:56:43;2.30;;;1.75;;
33724;SDS011;20056;0.000;0.000;2023-10-08T01:59:09;2.92;;;1.98;;
33724;SDS011;20056;0.000;0.000;2023-10-08T02:01:36;2.67;;;1.90;;
33724;SDS011;20056;0.000;0.000;2023-10-08T02:04:03;3.13;;;2.05;;
33724;SDS011;20056;0.000;0.000;2023-10-08T02:06:32;2.50;;;1.75;;
33724;SDS011;20056;0.000;0.000;2023-10-08T02:08:59;2.85;;;1.90;;
33724;SDS011;20056;0.000;0.000;2023-10-08T02:11:30;2.70;;;1.95;;
33724;SDS011;20056;0.000;0.000;2023-10-08T02:13:57;6.45;;;2.00;;
33724;SDS011;20056;0.000;0.000;2023-10-08T02:16:22;3.38;;;2.10;;
33724;SDS011;20056;0.000;0.000;2023-10-08T02:18:49;3.90;;;1.80;;
33724;SDS011;20056;0.000;0.000;2023-10-08T02:21:16;2.63;;;1.75;;
33724;SDS011;20056;0.000;0.000;2023-10-08T02:23:43;4.65;;;2.15;;
33724;SDS011;20056;0.000;0.000;2023-10-08T02:26:08;2.63;;;1.75;;
33724;SDS011;20056;0.000;0.000;2023-10-08T02:28:35;3.60;;;2.13;;
33724;SDS011;20056;0.000;0.000;2023-10-08T02:31:03;2.60;;;1.80;;
33724;SDS011;20056;0.000;0.000;2023-10-08T02:33:29;2.58;;;1.80;;
33724;SDS011;20056;0.000;0.000;2023-10-08T02:35:55;2.80;;;1.90;;
33724;SDS011;20056;0.000;0.000;2023-10-08T02:38:21;2.45;;;1.63;;
33724;SDS011;20056;0.000;0.000;2023-10-08T02:40:47;3.00;;;1.80;;
33724;SDS011;20056;0.000;0.000;2023-10-08T02:43:13;2.70;;;1.77;;
33724;SDS011;20056;0.000;0.000;2023-10-08T02:45:40;3.17;;;1.90;;
33724;SDS011;20056;0.000;0.000;2023-10-08T02:48:07;2.60;;;1.83;;
33724;SDS011;20056;0.000;0.000;2023-10-08T02:50:40;2.58;;;1.63;;
33724;SDS011;20056;0.000;0.000;2023-10-08T02:53:06;2.97;;;1.92;;
33724;SDS011;20056;0.000;0.000;2023-10-08T02:55:37;3.08;;;1.73;;
33724;SDS011;20056;0.000;0.000;2023-10-08T02:58:09;2.70;;;1.70;;
33724;SDS011;20056;0.000;0.000;2023-10-08T03:00:44;2.63;;;1.70;;
33724;SDS011;20056;0.000;0.000;2023-10-08T03:03:14;2.20;;;1.60;;
33724;SDS011;20056;0.000;0.000;2023-10-08T03:05:41;2.72;;;1.77;;
33724;SDS011;20056;0.000;0.000;2023-10-08T03:08:09;3.85;;;1.67;;
33724;SDS011;20056;0.000;0.000;2023-10-08T03:10:37;3.00;;;1.90;;
33724;SDS011;20056;0.000;0.000;2023-10-08T03:13:03;3.40;;;2.08;;
33724;SDS011;20056;0.000;0.000;2023-10-08T03:15:30;2.40;;;1.52;;
33724;SDS011;20056;0.000;0.000;2023-10-08T03:18:03;2.70;;;1.80;;
33724;SDS011;20056;0.000;0.000;2023-10-08T03:20:36;2.78;;;1.90;;
33724;SDS011;20056;0.000;0.000;2023-10-08T03:23:09;2.22;;;1.70;;
33724;SDS011;20056;0.000;0.000;2023-10-08T03:25:54;2.45;;;1.63;;
33724;SDS011;20056;0.000;0.000;2023-10-08T03:28:23;2.60;;;1.67;;
33724;SDS011;20056;0.000;0.000;2023-10-08T03:30:50;2.25;;;1.60;;
33724;SDS011;20056;0.000;0.000;2023-10-08T03:33:17;3.60;;;1.60;;
33724;SDS011;20056;0.000;0.000;2023-10-08T03:35:48;6.88;;;1.60;;
33724;SDS011;20056;0.000;0.000;2023-10-08T03:38:17;3.42;;;1.23;;
33724;SDS011;20056;0.000;0.000;2023-10-08T03:40:54;2.90;;;1.60;;
33724;SDS011;20056;0.000;0.000;2023-10-08T03:43:22;3.38;;;1.50;;
33724;SDS011;20056;0.000;0.000;2023-10-08T03:45:58;2.95;;;1.50;;
33724;SDS011;20056;0.000;0.000;2023-10-08T03:48:25;2.28;;;1.55;;
33724;SDS011;20056;0.000;0.000;2023-10-08T03:50:50;3.15;;;1.60;;
33724;SDS011;20056;0.000;0.000;2023-10-08T03:53:31;2.85;;;1.50;;
33724;SDS011;20056;0.000;0.000;2023-10-08T03:55:59;2.70;;;1.52;;
33724;SDS011;20056;0.000;0.000;2023-10-08T03:58:30;2.08;;;1.40;;
33724;SDS011;20056;0.000;0.000;2023-10-08T04:00:59;3.53;;;1.60;;
33724;SDS011;20056;0.000;0.000;2023-10-08T04:03:37;2.53;;;1.50;;
33724;SDS011;20056;0.000;0.000;2023-10-08T04:06:23;2.22;;;1.40;;
33724;SDS011;20056;0.000;0.000;2023-10-08T04:09:03;3.72;;;1.80;;
33724;SDS011;20056;0.000;0.000;2023-10-08T04:11:41;2.50;;;1.50;;
33724;SDS011;20056;0.000;0.000;2023-10-08T04:14:19;3.92;;;1.38;;
33724;SDS011;20056;0.000;0.000;2023-10-08T04:16:46;2.83;;;1.40;;
33724;SDS011;20056;0.000;0.000;2023-10-08T04:19:16;2.88;;;1.73;;
33724;SDS011;20056;0.000;0.000;2023-10-08T04:21:43;2.17;;;1.33;;
33724;SDS011;20056;0.000;0.000;2023-10-08T04:24:09;2.42;;;1.45;;
33724;SDS011;20056;0.000;0.000;2023-10-08T04:26:39;3.65;;;1.58;;
33724;SDS011;20056;0.000;0.000;2023-10-08T04:29:05;3.88;;;1.50;;
33724;SDS011;20056;0.000;0.000;2023-10-08T04:31:34;2.05;;;1.48;;
33724;SDS011;20056;0.000;0.000;2023-10-08T04:34:04;3.60;;;1.40;;
33724;SDS011;20056;0.000;0.000;2023-10-08T04:36:35;2.55;;;1.30;;
33724;SDS011;20056;0.000;0.000;2023-10-08T04:39:03;2.55;;;1.73;;
33724;SDS011;20056;0.000;0.000;2023-10-08T04:41:52;3.17;;;1.50;;
33724;SDS011;20056;0.000;0.000;2023-10-08T04:44:19;1.40;;;1.20;;
33724;SDS011;20056;0.000;0.000;2023-10-08T04:46:47;2.13;;;1.52;;
33724;SDS011;20056;0.000;0.000;2023-10-08T04:49:17;1.67;;;1.20;;
33724;SDS011;20056;0.000;0.000;2023-10-08T04:51:56;1.52;;;1.23;;
33724;SDS011;20056;0.000;0.000;2023-10-08T04:54:39;2.80;;;1.40;;
33724;SDS011;20056;0.000;0.000;2023-10-08T04:57:06;1.60;;;1.20;;
33724;SDS011;20056;0.000;0.000;2023-10-08T04:59:40;2.00;;;1.30;;
33724;SDS011;20056;0.000;0.000;2023-10-08T05:02:07;1.75;;;1.20;;
33724;SDS011;20056;0.000;0.000;2023-10-08T05:04:49;2.80;;;1.40;;
33724;SDS011;20056;0.000;0.000;2023-10-08T05:07:32;1.90;;;1.25;;
33724;SDS011;20056;0.000;0.000;2023-10-08T05:10:10;3.40;;;1.40;;
33724;SDS011;20056;0.000;0.000;2023-10-08T05:12:56;2.70;;;1.30;;
33724;SDS011;20056;0.000;0.000;2023-10-08T05:15:41;1.55;;;1.30;;
33724;SDS011;20056;0.000;0.000;2023-10-08T05:18:14;2.53;;;1.40;;
33724;SDS011;20056;0.000;0.000;2023-10-08T05:20:43;1.95;;;1.40;;
33724;SDS011;20056;0.000;0.000;2023-10-08T05:23:15;1.30;;;1.08;;
33724;SDS011;20056;0.000;0.000;2023-10-08T05:25:55;2.13;;;1.30;;
33724;SDS011;20056;0.000;0.000;2023-10-08T05:28:31;2.25;;;1.42;;
33724;SDS011;20056;0.000;0.000;2023-10-08T05:31:07;1.75;;;1.40;;
33724;SDS011;20056;0.000;0.000;2023-10-08T05:33:46;2.83;;;1.15;;
33724;SDS011;20056;0.000;0.000;2023-10-08T05:36:39;1.57;;;1.20;;
33724;SDS011;20056;0.000;0.000;2023-10-08T05:39:35;2.85;;;1.23;;
33724;SDS011;20056;0.000;0.000;2023-10-08T05:42:03;1.92;;;1.20;;
33724;SDS011;20056;0.000;0.000;2023-10-08T05:44:40;1.38;;;1.25;;
33724;SDS011;20056;0.000;0.000;2023-10-08T05:47:11;3.08;;;1.48;;
33724;SDS011;20056;0.000;0.000;2023-10-08T05:49:43;3.83;;;1.65;;
33724;SDS011;20056;0.000;0.000;2023-10-08T05:52:19;4.90;;;1.75;;
33724;SDS011;20056;0.000;0.000;2023-10-08T05:55:06;7.50;;;2.15;;
33724;SDS011;20056;0.000;0.000;2023-10-08T05:57:40;5.85;;;2.42;;
33724;SDS011;20056;0.000;0.000;2023-10-08T06:00:11;6.60;;;2.40;;
33724;SDS011;20056;0.000;0.000;2023-10-08T06:02:41;8.07;;;1.80;;
33724;SDS011;20056;0.000;0.000;2023-10-08T06:05:10;10.10;;;2.30;;
33724;SDS011;20056;0.000;0.000;2023-10-08T06:07:40;6.32;;;2.17;;
33724;SDS011;20056;0.000;0.000;2023-10-08T06:10:15;5.43;;;2.08;;
33724;SDS011;20056;0.000;0.000;2023-10-08T06:13:02;5.63;;;2.20;;
33724;SDS011;20056;0.000;0.000;2023-10-08T06:15:47;6.97;;;1.95;;
33724;SDS011;20056;0.000;0.000;2023-10-08T06:18:21;14.05;;;2.70;;
33724;SDS011;20056;0.000;0.000;2023-10-08T06:23:19;8.68;;;2.78;;
33724;SDS011;20056;0.000;0.000;2023-10-08T06:25:48;8.27;;;2.55;;
33724;SDS011;20056;0.000;0.000;2023-10-08T06:28:21;7.53;;;2.22;;
33724;SDS011;20056;0.000;0.000;2023-10-08T06:30:50;8.75;;;2.60;;
33724;SDS011;20056;0.000;0.000;2023-10-08T06:33:21;6.28;;;2.30;;
33724;SDS011;20056;0.000;0.000;2023-10-08T06:35:50;8.77;;;2.83;;
33724;SDS011;20056;0.000;0.000;2023-10-08T06:38:43;12.23;;;2.70;;
33724;SDS011;20056;0.000;0.000;2023-10-08T06:41:14;6.93;;;2.63;;
33724;SDS011;20056;0.000;0.000;2023-10-08T06:43:43;9.82;;;2.60;;
33724;SDS011;20056;0.000;0.000;2023-10-08T06:46:13;9.70;;;2.38;;
33724;SDS011;20056;0.000;0.000;2023-10-08T06:48:39;7.50;;;2.47;;
33724;SDS011;20056;0.000;0.000;2023-10-08T06:51:10;9.40;;;2.60;;
33724;SDS011;20056;0.000;0.000;2023-10-08T06:53:42;7.22;;;2.58;;
33724;SDS011;20056;0.000;0.000;2023-10-08T06:56:10;8.85;;;2.78;;
33724;SDS011;20056;0.000;0.000;2023-10-08T06:58:37;8.55;;;2.35;;
33724;SDS011;20056;0.000;0.000;2023-10-08T07:01:03;8.65;;;2.65;;
33724;SDS011;20056;0.000;0.000;2023-10-08T07:03:30;6.57;;;2.55;;
33724;SDS011;20056;0.000;0.000;2023-10-08T07:05:56;12.35;;;2.90;;
33724;SDS011;20056;0.000;0.000;2023-10-08T07:08:24;9.23;;;3.00;;
33724;SDS011;20056;0.000;0.000;2023-10-08T07:10:53;11.68;;;3.33;;
33724;SDS011;20056;0.000;0.000;2023-10-08T07:13:21;10.50;;;3.50;;
33724;SDS011;20056;0.000;0.000;2023-10-08T07:15:51;9.80;;;3.00;;
33724;SDS011;20056;0.000;0.000;2023-10-08T07:18:17;8.43;;;2.90;;
33724;SDS011;20056;0.000;0.000;2023-10-08T07:20:50;7.47;;;3.03;;
33724;SDS011;20056;0.000;0.000;2023-10-08T07:23:21;8.40;;;2.90;;
33724;SDS011;20056;0.000;0.000;2023-10-08T07:25:57;7.45;;;3.05;;
33724;SDS011;20056;0.000;0.000;2023-10-08T07:28:40;7.18;;;2.72;;
33724;SDS011;20056;0.000;0.000;2023-10-08T07:31:16;8.00;;;3.15;;
33724;SDS011;20056;0.000;0.000;2023-10-08T07:33:46;8.00;;;2.92;;
33724;SDS011;20056;0.000;0.000;2023-10-08T07:36:13;9.90;;;2.85;;
33724;SDS011;20056;0.000;0.000;2023-10-08T07:38:43;8.10;;;2.67;;
33724;SDS011;20056;0.000;0.000;2023-10-08T07:41:12;10.35;;;2.90;;
33724;SDS011;20056;0.000;0.000;2023-10-08T07:43:42;13.20;;;3.13;;
33724;SDS011;20056;0.000;0.000;2023-10-08T07:46:10;10.80;;;2.65;;
33724;SDS011;20056;0.000;0.000;2023-10-08T07:48:36;8.20;;;2.65;;
33724;SDS011;20056;0.000;0.000;2023-10-08T07:51:07;8.95;;;2.30;;
33724;SDS011;20056;0.000;0.000;2023-10-08T07:53:33;5.85;;;1.98;;
33724;SDS011;20056;0.000;0.000;2023-10-08T07:56:07;7.40;;;2.30;;
33724;SDS011;20056;0.000;0.000;2023-10-08T07:58:33;8.85;;;2.35;;
33724;SDS011;20056;0.000;0.000;2023-10-08T08:01:02;6.22;;;2.15;;
33724;SDS011;20056;0.000;0.000;2023-10-08T08:03:31;8.15;;;2.25;;
33724;SDS011;20056;0.000;0.000;2023-10-08T08:05:56;7.20;;;2.17;;
33724;SDS011;20056;0.000;0.000;2023-10-08T08:08:23;7.53;;;2.10;;
33724;SDS011;20056;0.000;0.000;2023-10-08T08:10:52;7.07;;;1.98;;
33724;SDS011;20056;0.000;0.000;2023-10-08T08:13:28;6.85;;;2.30;;
33724;SDS011;20056;0.000;0.000;2023-10-08T08:15:54;7.88;;;2.00;;
33724;SDS011;20056;0.000;0.000;2023-10-08T08:18:35;5.78;;;2.30;;
33724;SDS011;20056;0.000;0.000;2023-10-08T08:21:02;5.65;;;2.33;;
33724;SDS011;20056;0.000;0.000;2023-10-08T08:23:29;7.07;;;2.00;;
33724;SDS011;20056;0.000;0.000;2023-10-08T08:25:55;4.95;;;1.80;;
33724;SDS011;20056;0.000;0.000;2023-10-08T08:28:32;6.75;;;1.80;;
33724;SDS011;20056;0.000;0.000;2023-10-08T08:31:01;6.30;;;2.38;;
33724;SDS011;20056;0.000;0.000;2023-10-08T08:33:29;6.15;;;2.00;;
33724;SDS011;20056;0.000;0.000;2023-10-08T08:36:15;10.90;;;2.45;;
33724;SDS011;20056;0.000;0.000;2023-10-08T08:38:41;10.57;;;2.60;;
33724;SDS011;20056;0.000;0.000;2023-10-08T08:41:08;7.13;;;2.47;;
33724;SDS011;20056;0.000;0.000;2023-10-08T08:43:37;6.60;;;2.33;;
33724;SDS011;20056;0.000;0.000;2023-10-08T08:46:09;7.65;;;2.35;;
33724;SDS011;20056;0.000;0.000;2023-10-08T08:48:41;10.05;;;2.60;;
33724;SDS011;20056;0.000;0.000;2023-10-08T08:51:09;7.22;;;2.30;;
33724;SDS011;20056;0.000;0.000;2023-10-08T08:53:38;9.05;;;2.20;;
33724;SDS011;20056;0.000;0.000;2023-10-08T08:56:08;5.13;;;1.85;;
33724;SDS011;20056;0.000;0.000;2023-10-08T08:58:36;8.18;;;2.47;;
33724;SDS011;20056;0.000;0.000;2023-10-08T09:01:03;9.45;;;2.33;;
33724;SDS011;20056;0.000;0.000;2023-10-08T09:03:33;8.82;;;2.10;;
33724;SDS011;20056;0.000;0.000;2023-10-08T09:05:58;6.35;;;2.42;;
33724;SDS011;20056;0.000;0.000;2023-10-08T09:08:28;8.15;;;2.30;;
33724;SDS011;20056;0.000;0.000;2023-10-08T09:10:58;8.80;;;2.30;;
33724;SDS011;20056;0.000;0.000;2023-10-08T09:13:26;9.30;;;2.35;;
33724;SDS011;20056;0.000;0.000;2023-10-08T09:15:56;6.15;;;2.33;;
33724;SDS011;20056;0.000;0.000;2023-10-08T09:18:52;8.00;;;2.58;;
33724;SDS011;20056;0.000;0.000;2023-10-08T09:21:18;12.73;;;2.55;;
33724;SDS011;20056;0.000;0.000;2023-10-08T09:23:51;9.13;;;2.40;;
33724;SDS011;20056;0.000;0.000;2023-10-08T09:26:22;5.60;;;2.00;;
33724;SDS011;20056;0.000;0.000;2023-10-08T09:28:54;8.82;;;2.20;;
33724;SDS011;20056;0.000;0.000;2023-10-08T09:31:22;14.55;;;2.40;;
33724;SDS011;20056;0.000;0.000;2023-10-08T09:33:54;215.88;;;8.07;;
33724;SDS011;20056;0.000;0.000;2023-10-08T09:36:20;16.02;;;2.83;;
33724;SDS011;20056;0.000;0.000;2023-10-08T09:38:56;8.30;;;2.55;;
33724;SDS011;20056;0.000;0.000;2023-10-08T09:41:25;7.65;;;2.20;;
33724;SDS011;20056;0.000;0.000;2023-10-08T09:43:52;9.32;;;2.50;;
33724;SDS011;20056;0.000;0.000;2023-10-08T09:46:18;10.07;;;2.45;;
33724;SDS011;20056;0.000;0.000;2023-10-08T09:48:53;11.32;;;2.28;;
33724;SDS011;20056;0.000;0.000;2023-10-08T09:51:24;6.88;;;2.33;;
33724;SDS011;20056;0.000;0.000;2023-10-08T09:56:29;8.13;;;2.60;;
33724;SDS011;20056;0.000;0.000;2023-10-08T09:58:56;7.50;;;2.83;;
33724;SDS011;20056;0.000;0.000;2023-10-08T10:01:24;12.73;;;3.42;;
33724;SDS011;20056;0.000;0.000;2023-10-08T10:03:51;9.25;;;3.13;;
33724;SDS011;20056;0.000;0.000;2023-10-08T10:06:17;8.85;;;2.42;;
33724;SDS011;20056;0.000;0.000;2023-10-08T10:08:44;8.70;;;2.75;;
33724;SDS011;20056;0.000;0.000;2023-10-08T10:11:10;9.00;;;2.70;;
33724;SDS011;20056;0.000;0.000;2023-10-08T10:13:40;8.63;;;2.80;;
33724;SDS011;20056;0.000;0.000;2023-10-08T10:18:38;6.88;;;2.40;;
33724;SDS011;20056;0.000;0.000;2023-10-08T10:23:38;11.38;;;3.40;;
33724;SDS011;20056;0.000;0.000;2023-10-08T10:26:06;19.50;;;3.60;;
33724;SDS011;20056;0.000;0.000;2023-10-08T10:31:44;9.43;;;3.19;;
33724;SDS011;20056;0.000;0.000;2023-10-08T10:34:12;11.25;;;2.92;;
33724;SDS011;20056;0.000;0.000;2023-10-08T10:36:41;12.70;;;2.80;;
33724;SDS011;20056;0.000;0.000;2023-10-08T10:39:08;8.15;;;2.70;;
33724;SDS011;20056;0.000;0.000;2023-10-08T10:41:50;10.60;;;3.30;;
33724;SDS011;20056;0.000;0.000;2023-10-08T10:44:16;8.07;;;3.15;;
33724;SDS011;20056;0.000;0.000;2023-10-08T10:46:42;5.50;;;2.72;;
33724;SDS011;20056;0.000;0.000;2023-10-08T10:49:16;12.18;;;3.17;;
33724;SDS011;20056;0.000;0.000;2023-10-08T10:51:55;9.85;;;3.40;;
33724;SDS011;20056;0.000;0.000;2023-10-08T10:54:22;7.53;;;3.15;;
33724;SDS011;20056;0.000;0.000;2023-10-08T10:56:49;13.43;;;3.50;;
33724;SDS011;20056;0.000;0.000;2023-10-08T10:59:31;8.52;;;3.47;;
33724;SDS011;20056;0.000;0.000;2023-10-08T11:02:04;12.55;;;3.55;;
33724;SDS011;20056;0.000;0.000;2023-10-08T11:04:36;8.27;;;2.90;;
33724;SDS011;20056;0.000;0.000;2023-10-08T11:07:14;8.55;;;3.08;;
33724;SDS011;20056;0.000;0.000;2023-10-08T11:09:43;8.15;;;3.35;;
33724;SDS011;20056;0.000;0.000;2023-10-08T11:12:10;13.77;;;3.47;;
33724;SDS011;20056;0.000;0.000;2023-10-08T11:14:38;10.82;;;3.33;;
33724;SDS011;20056;0.000;0.000;2023-10-08T11:17:17;8.65;;;3.20;;
33724;SDS011;20056;0.000;0.000;2023-10-08T11:19:47;11.60;;;3.30;;
33724;SDS011;20056;0.000;0.000;2023-10-08T11:22:13;9.23;;;3.30;;
33724;SDS011;20056;0.000;0.000;2023-10-08T11:24:43;10.18;;;3.00;;
33724;SDS011;20056;0.000;0.000;2023-10-08T11:27:13;7.97;;;3.03;;
33724;SDS011;20056;0.000;0.000;2023-10-08T11:29:41;11.43;;;3.75;;
33724;SDS011;20056;0.000;0.000;2023-10-08T11:32:14;11.30;;;3.50;;
33724;SDS011;20056;0.000;0.000;2023-10-08T11:34:42;12.88;;;3.17;;
33724;SDS011;20056;0.000;0.000;2023-10-08T11:37:14;11.20;;;3.33;;
33724;SDS011;20056;0.000;0.000;2023-10-08T11:39:51;9.77;;;3.22;;
33724;SDS011;20056;0.000;0.000;2023-10-08T11:42:18;14.88;;;3.15;;
33724;SDS011;20056;0.000;0.000;2023-10-08T11:44:52;11.65;;;2.65;;
33724;SDS011;20056;0.000;0.000;2023-10-08T11:47:18;10.80;;;3.03;;
33724;SDS011;20056;0.000;0.000;2023-10-08T11:49:46;11.73;;;3.05;;
33724;SDS011;20056;0.000;0.000;2023-10-08T11:52:34;10.98;;;2.90;;
33724;SDS011;20056;0.000;0.000;2023-10-08T11:55:06;8.40;;;2.67;;
33724;SDS011;20056;0.000;0.000;2023-10-08T11:57:33;7.68;;;2.90;;
33724;SDS011;20056;0.000;0.000;2023-10-08T12:00:02;9.95;;;2.55;;
33724;SDS011;20056;0.000;0.000;2023-10-08T12:02:43;12.30;;;2.80;;
33724;SDS011;20056;0.000;0.000;2023-10-08T12:05:09;16.70;;;3.03;;
33724;SDS011;20056;0.000;0.000;2023-10-08T12:07:43;10.27;;;2.80;;
33724;SDS011;20056;0.000;0.000;2023-10-08T12:10:09;12.38;;;2.83;;
33724;SDS011;20056;0.000;0.000;2023-10-08T12:12:36;12.40;;;3.00;;
33724;SDS011;20056;0.000;0.000;2023-10-08T12:15:02;10.30;;;2.55;;
33724;SDS011;20056;0.000;0.000;2023-10-08T12:17:28;15.38;;;3.22;;
33724;SDS011;20056;0.000;0.000;2023-10-08T12:20:05;18.67;;;3.42;;
33724;SDS011;20056;0.000;0.000;2023-10-08T12:22:47;10.80;;;3.10;;
33724;SDS011;20056;0.000;0.000;2023-10-08T12:25:16;14.90;;;3.13;;
33724;SDS011;20056;0.000;0.000;2023-10-08T12:27:41;12.00;;;2.90;;
33724;SDS011;20056;0.000;0.000;2023-10-08T12:30:08;13.57;;;2.85;;
33724;SDS011;20056;0.000;0.000;2023-10-08T12:32:36;11.18;;;2.58;;
33724;SDS011;20056;0.000;0.000;2023-10-08T12:35:05;11.23;;;2.65;;
33724;SDS011;20056;0.000;0.000;2023-10-08T12:37:37;9.93;;;3.00;;
33724;SDS011;20056;0.000;0.000;2023-10-08T12:40:04;11.10;;;2.60;;
33724;SDS011;20056;0.000;0.000;2023-10-08T12:42:37;9.15;;;2.60;;
33724;SDS011;20056;0.000;0.000;2023-10-08T12:45:09;8.15;;;2.40;;
33724;SDS011;20056;0.000;0.000;2023-10-08T12:47:38;9.68;;;2.55;;
33724;SDS011;20056;0.000;0.000;2023-10-08T12:50:04;8.30;;;2.40;;
33724;SDS011;20056;0.000;0.000;2023-10-08T12:52:32;8.98;;;2.53;;
33724;SDS011;20056;0.000;0.000;2023-10-08T12:55:00;6.07;;;2.35;;
33724;SDS011;20056;0.000;0.000;2023-10-08T12:57:31;9.25;;;2.78;;
33724;SDS011;20056;0.000;0.000;2023-10-08T12:59:59;7.70;;;2.33;;
33724;SDS011;20056;0.000;0.000;2023-10-08T13:02:25;8.57;;;2.47;;
33724;SDS011;20056;0.000;0.000;2023-10-08T13:04:54;9.85;;;2.30;;
33724;SDS011;20056;0.000;0.000;2023-10-08T13:07:20;13.77;;;2.45;;
33724;SDS011;20056;0.000;0.000;2023-10-08T13:09:47;21.42;;;2.83;;
33724;SDS011;20056;0.000;0.000;2023-10-08T13:12:13;13.13;;;2.65;;
33724;SDS011;20056;0.000;0.000;2023-10-08T13:14:40;16.75;;;2.60;;
33724;SDS011;20056;0.000;0.000;2023-10-08T13:17:06;6.95;;;2.60;;
33724;SDS011;20056;0.000;0.000;2023-10-08T13:19:36;10.27;;;2.70;;
33724;SDS011;20056;0.000;0.000;2023-10-08T13:22:02;11.35;;;2.50;;
33724;SDS011;20056;0.000;0.000;2023-10-08T13:24:31;7.63;;;2.40;;
33724;SDS011;20056;0.000;0.000;2023-10-08T13:26:57;6.90;;;2.30;;
33724;SDS011;20056;0.000;0.000;2023-10-08T13:29:24;7.32;;;2.42;;
33724;SDS011;20056;0.000;0.000;2023-10-08T13:31:52;9.38;;;2.30;;
33724;SDS011;20056;0.000;0.000;2023-10-08T13:34:19;7.60;;;1.80;;
33724;SDS011;20056;0.000;0.000;2023-10-08T13:36:46;7.70;;;2.03;;
33724;SDS011;20056;0.000;0.000;2023-10-08T13:39:14;7.95;;;2.30;;
33724;SDS011;20056;0.000;0.000;2023-10-08T13:41:46;7.72;;;2.22;;
33724;SDS011;20056;0.000;0.000;2023-10-08T13:44:17;5.70;;;2.10;;
33724;SDS011;20056;0.000;0.000;2023-10-08T13:46:44;7.25;;;2.30;;
33724;SDS011;20056;0.000;0.000;2023-10-08T13:49:13;8.85;;;2.35;;
33724;SDS011;20056;0.000;0.000;2023-10-08T13:51:41;6.38;;;2.20;;
33724;SDS011;20056;0.000;0.000;2023-10-08T13:54:09;7.25;;;2.40;;
33724;SDS011;20056;0.000;0.000;2023-10-08T13:56:35;8.93;;;2.28;;
33724;SDS011;20056;0.000;0.000;2023-10-08T13:59:03;5.60;;;2.10;;
33724;SDS011;20056;0.000;0.000;2023-10-08T14:01:36;7.45;;;2.25;;
33724;SDS011;20056;0.000;0.000;2023-10-08T14:04:03;10.13;;;2.50;;
33724;SDS011;20056;0.000;0.000;2023-10-08T14:06:34;7.85;;;2.70;;
33724;SDS011;20056;0.000;0.000;2023-10-08T14:09:03;7.15;;;2.17;;
33724;SDS011;20056;0.000;0.000;2023-10-08T14:11:33;7.65;;;2.17;;
33724;SDS011;20056;0.000;0.000;2023-10-08T14:14:00;6.32;;;2.22;;
33724;SDS011;20056;0.000;0.000;2023-10-08T14:16:27;7.38;;;2.42;;
33724;SDS011;20056;0.000;0.000;2023-10-08T14:18:54;6.00;;;2.42;;
33724;SDS011;20056;0.000;0.000;2023-10-08T14:21:21;8.32;;;2.63;;
33724;SDS011;20056;0.000;0.000;2023-10-08T14:23:55;7.63;;;2.33;;
33724;SDS011;20056;0.000;0.000;2023-10-08T14:26:22;7.05;;;2.20;;
33724;SDS011;20056;0.000;0.000;2023-10-08T14:28:48;8.40;;;2.20;;
33724;SDS011;20056;0.000;0.000;2023-10-08T14:31:19;6.68;;;2.58;;
33724;SDS011;20056;0.000;0.000;2023-10-08T14:33:49;6.68;;;2.40;;
33724;SDS011;20056;0.000;0.000;2023-10-08T14:36:30;8.65;;;2.15;;
33724;SDS011;20056;0.000;0.000;2023-10-08T14:39:14;6.90;;;2.85;;
33724;SDS011;20056;0.000;0.000;2023-10-08T14:41:58;7.80;;;2.00;;
33724;SDS011;20056;0.000;0.000;2023-10-08T14:44:42;5.13;;;1.73;;
33724;SDS011;20056;0.000;0.000;2023-10-08T14:47:08;7.45;;;2.33;;
33724;SDS011;20056;0.000;0.000;2023-10-08T14:49:34;7.75;;;2.08;;
33724;SDS011;20056;0.000;0.000;2023-10-08T14:52:00;6.50;;;2.40;;
33724;SDS011;20056;0.000;0.000;2023-10-08T14:54:29;4.47;;;1.80;;
33724;SDS011;20056;0.000;0.000;2023-10-08T14:56:55;5.80;;;2.15;;
33724;SDS011;20056;0.000;0.000;2023-10-08T14:59:22;6.47;;;2.30;;
33724;SDS011;20056;0.000;0.000;2023-10-08T15:01:48;7.45;;;2.55;;
33724;SDS011;20056;0.000;0.000;2023-10-08T15:04:15;7.05;;;2.17;;
33724;SDS011;20056;0.000;0.000;2023-10-08T15:06:41;7.35;;;2.15;;
33724;SDS011;20056;0.000;0.000;2023-10-08T15:09:08;5.78;;;2.05;;
33724;SDS011;20056;0.000;0.000;2023-10-08T15:11:34;6.70;;;2.15;;
33724;SDS011;20056;0.000;0.000;2023-10-08T15:14:01;6.95;;;2.25;;
33724;SDS011;20056;0.000;0.000;2023-10-08T15:16:34;7.72;;;2.20;;
33724;SDS011;20056;0.000;0.000;2023-10-08T15:19:04;6.45;;;2.00;;
33724;SDS011;20056;0.000;0.000;2023-10-08T15:21:30;7.88;;;2.05;;
33724;SDS011;20056;0.000;0.000;2023-10-08T15:24:00;6.32;;;2.10;;
33724;SDS011;20056;0.000;0.000;2023-10-08T15:26:31;5.28;;;2.30;;
33724;SDS011;20056;0.000;0.000;2023-10-08T15:28:58;8.13;;;2.33;;
33724;SDS011;20056;0.000;0.000;2023-10-08T15:31:24;7.57;;;2.35;;
33724;SDS011;20056;0.000;0.000;2023-10-08T15:33:49;11.43;;;2.33;;